CheckWX is a tool to help pilots better visualize weather data.  It is not intended as a substitute for an official pre-flight weather briefing.

19:47:07 UTC

CYRL METAR
Red Lake Airport
Red Lake, Ontario, Canada
Current

47 mins ago

CYRL 191900Z 24016G21KT 15SM DRSN FEW022 BKN240 M13/M18 A3017 RMK SC2CI3 CONTRAILS SLP262
Observed
Feb-19 @ 19:00 UTC
Wind
  • 240° at 16 KTS
  • Gusting to 21 KTS
Visibility
15 SM
Flight Rules
VFR
Conditions
Low drifting Snow
Cloud Levels
  • Few at 2,200' AGL
  • Broken at 24,000' AGL
Temperature
-13°C / 9°F
Dewpoint
-18°C / -0°F
Humidity
66%
Altimeter
30.17" Hg
Pressure
1026.2 hPa
Previous

2 hours ago

CYRL 191800Z 23010G19KT 15SM DRSN FEW018 SCT240 M14/M19 A3020 RMK CU2CI1 CONTRAILS SLP274
Observed
Feb-19 @ 18:00 UTC
Wind
  • 230° at 10 KTS
  • Gusting to 19 KTS
Visibility
15 SM
Flight Rules
VFR
Conditions
Low drifting Snow
Cloud Levels
  • Few at 1,800' AGL
  • Scattered at 24,000' AGL
Temperature
-14°C / 7°F
Dewpoint
-19°C / -2°F
Humidity
66%
Altimeter
30.2" Hg
Pressure
1027.4 hPa
Previous

2 hours ago

CYRL 191727Z 22009G15KT 15SM DRSN SCT018 BKN240 M15/M20 A3022 RMK CU3CI2 SLP281
Observed
Feb-19 @ 17:27 UTC
Wind
  • 220° at 9 KTS
  • Gusting to 15 KTS
Visibility
15 SM
Flight Rules
VFR
Conditions
Low drifting Snow
Cloud Levels
  • Scattered at 1,800' AGL
  • Broken at 24,000' AGL
Temperature
-15°C / 5°F
Dewpoint
-20°C / -4°F
Humidity
66%
Altimeter
30.22" Hg
Pressure
1028.1 hPa